Latest Weather Observations for Yarram Airport

IDV60801

Issued at 9:31 am EDT Sunday 1 March 2015 (issued every 30 minutes, with the page automatically refreshed every 10 minutes)

About weather observations | Map of weather stations | Latest weather observations for VIC | Other Formats
Station Details ID: 085151 Name: YARRAM AIRPORT Lat: -38.56 Lon: 146.75 Height: 17.9 m
Data from the previous 72 hours. | See also: Recent months at Yarram Airport
Date/Time
EDT
Temp
°C
App
Temp
°C
Dew
Point
Rel
Hum
%
Delta-T
°C
Wind Press
QNH
hPa
Press
MSL
hPa
Rain
since 9 am
mm
Dir
 
Spd
km/h
Gust
km/h
Spd
kts
Gust
kts
01/09:30am 17.0 13.9 12.3 74 2.6 WSW 20 30 11 16 1010.4 1010.4 0.0
01/09:00am 17.7 14.3 13.8 78 2.2 W 24 30 13 16 1009.8 1009.8 4.0
01/08:30am 17.0 13.9 13.3 79 2.1 W 22 28 12 15 1009.3 1009.3 4.0
01/08:00am 15.9 13.1 13.2 84 1.5 W 20 28 11 15 1008.8 1008.8 4.0
01/07:30am 15.6 12.9 13.4 87 1.2 W 20 26 11 14 1008.1 1008.1 4.0
01/07:00am 15.5 12.7 13.3 87 1.2 W 20 24 11 13 1007.4 1007.4 4.0
01/06:30am 15.5 12.7 13.2 86 1.3 WSW 20 26 11 14 1006.7 1006.7 4.0
01/06:00am 15.7 12.2 13.5 87 1.2 WSW 24 32 13 17 1006.3 1006.3 4.0
01/05:30am 15.7 13.6 14.6 93 0.6 WSW 19 24 10 13 1005.6 1005.6 4.0
01/05:00am 15.9 14.1 15.4 97 0.3 WSW 19 28 10 15 1005.2 1005.2 4.0
01/04:30am 16.0 12.0 15.2 95 0.5 SW 30 37 16 20 1004.9 1004.9 3.8
01/04:00am 16.4 12.2 16.2 99 0.1 WSW 33 43 18 23 1004.3 1004.3 3.8
01/03:30am 17.4 14.6 17.4 100 0.0 WSW 28 44 15 24 1003.6 1003.6 3.8
01/03:23am 17.7 16.8 17.7 100 0.0 WSW 19 44 10 24 1003.6 1003.6 3.8
01/03:00am 18.1 19.2 18.1 100 0.0 WSW 9 11 5 6 1003.4 1003.4 3.6
01/02:30am 18.2 19.8 18.2 100 0.0 WSW 7 9 4 5 1003.7 1003.7 3.2
01/02:00am 18.2 20.0 18.2 100 0.0 W 6 7 3 4 1004.0 1004.0 3.2
01/01:30am 18.2 18.9 18.0 99 0.1 SW 11 13 6 7 1004.2 1004.2 3.2
01/01:00am 18.2 19.7 18.0 99 0.1 W 7 9 4 5 1004.1 1004.1 2.4
01/12:30am 18.4 19.2 18.1 98 0.2 W 11 15 6 8 1004.3 1004.3 2.2
01/12:00am 18.8 18.5 18.3 97 0.3 W 17 24 9 13 1005.2 1005.2 1.6
 
Date/Time
EDT
Temp
°C
App
Temp
°C
Dew
Point
Rel
Hum
%
Delta-T
°C
Wind Press
QNH
hPa
Press
MSL
hPa
Rain
since 9 am
mm
Dir
 
Spd
km/h
Gust
km/h
Spd
kts
Gust
kts
28/11:30pm 19.5 18.0 18.5 94 0.6 WSW 24 35 13 19 1005.3 1005.3 1.0
28/11:00pm 20.9 17.9 17.7 82 2.0 W 30 41 16 22 1004.8 1004.8 0.4
28/10:40pm 21.6 19.6 17.4 77 2.6 WSW 24 50 13 27 1003.8 1003.8 0.2
28/10:30pm 20.7 21.1 18.1 85 1.6 WSW 13 15 7 8 1003.6 1003.6 0.2
28/10:00pm 21.3 20.1 18.3 83 1.9 SW 22 32 12 17 1002.6 1002.6 0.0
28/09:30pm 20.4 21.3 18.3 88 1.3 ENE 11 13 6 7 1000.7 1000.6 0.0
28/09:00pm 20.6 21.9 18.5 88 1.3 ENE 9 13 5 7 1001.0 1000.9 0.0
28/08:30pm 20.9 21.5 18.7 87 1.4 ENE 13 17 7 9 1000.9 1000.8 0.0
28/08:00pm 21.2 22.1 18.4 84 1.8 ENE 11 13 6 7 1001.2 1001.1 0.0
28/07:30pm 22.8 23.3 18.3 76 2.8 ENE 13 19 7 10 1001.6 1001.5 0.0
28/07:00pm 23.4 23.7 17.8 71 3.5 ENE 13 20 7 11 1002.2 1002.1 0.0
28/06:30pm 24.0 25.0 18.6 72 3.4 ENE 11 15 6 8 1002.5 1002.4 0.0
28/06:00pm 23.9 24.7 17.4 67 4.0 E 9 13 5 7 1003.2 1003.2 0.0
28/05:30pm 24.2 24.5 17.0 64 4.4 E 11 17 6 9 1003.2 1003.2 0.0
28/05:00pm 24.8 24.7 17.8 65 4.4 ESE 15 20 8 11 1003.1 1003.1 0.0
28/04:30pm 25.6 26.2 17.8 62 4.9 ESE 11 17 6 9 1003.3 1003.3 0.0
28/04:00pm 25.3 25.3 18.0 64 4.6 SE 15 19 8 10 1003.5 1003.5 0.0
28/03:30pm 26.5 27.1 15.8 51 6.5 SSE 7 9 4 5 1003.9 1003.9 0.0
28/03:00pm 26.9 27.0 15.6 50 6.9 N 9 15 5 8 1004.2 1004.2 0.0
28/02:30pm 24.5 25.2 15.7 58 5.3 SSE 6 11 3 6 1004.7 1004.7 0.0
28/02:00pm 23.6 22.5 16.4 64 4.4 SSW 17 20 9 11 1005.3 1005.3 0.0
28/01:30pm 24.2 25.3 17.9 68 3.9 SSW 9 11 5 6 1005.3 1005.3 0.0
28/01:00pm 24.1 25.6 17.6 67 4.1 ENE 6 11 3 6 1005.0 1005.0 0.0
28/12:30pm 24.7 26.4 15.3 56 5.7 CALM 0 0 0 0 1005.0 1005.0 0.0
28/12:00pm 24.7 26.2 15.6 57 5.5 W 2 7 1 4 1005.3 1005.3 0.0
28/11:30am 24.1 24.4 16.1 61 4.9 NNE 9 15 5 8 1005.5 1005.5 0.0
28/11:00am 22.8 21.4 16.6 68 3.8 NE 19 22 10 12 1005.7 1005.7 0.0
28/10:30am 21.9 20.5 16.6 72 3.2 NE 19 26 10 14 1005.8 1005.8 0.0
28/10:00am 21.0 19.4 16.6 76 2.7 NNE 20 28 11 15 1006.4 1006.4 0.0
28/09:30am 20.1 18.6 16.3 79 2.3 NE 19 28 10 15 1006.7 1006.7 0.0
28/09:00am 19.3 16.9 16.5 84 1.7 N 24 33 13 18 1006.9 1006.9 0.0
28/08:30am 18.3 15.7 16.8 91 0.9 NNE 26 33 14 18 1007.0 1007.0 0.0
28/08:00am 17.1 15.3 16.1 94 0.6 NNE 20 26 11 14 1006.5 1006.5 0.0
28/07:30am 16.7 15.8 15.9 95 0.5 NE 15 20 8 11 1006.5 1006.5 0.0
28/07:00am 16.5 15.2 15.7 95 0.5 NE 17 24 9 13 1006.9 1006.9 0.0
28/06:30am 15.9 14.8 15.3 96 0.3 NE 15 19 8 10 1007.3 1007.3 0.0
28/06:00am 15.7 15.3 15.1 96 0.3 ENE 11 15 6 8 1007.3 1007.3 0.0
28/05:30am 15.8 15.3 15.0 95 0.5 ENE 11 13 6 7 1007.8 1007.8 0.0
28/05:00am 15.6 15.1 14.8 95 0.5 NE 11 13 6 7 1008.1 1008.1 0.0
28/04:30am 15.5 14.9 14.7 95 0.5 NE 11 15 6 8 1008.3 1008.3 0.0
28/04:00am 15.4 14.8 14.6 95 0.5 NE 11 15 6 8 1008.9 1008.9 0.0
28/03:30am 15.4 15.2 14.6 95 0.5 NE 9 11 5 6 1009.4 1009.4 0.0
28/03:00am 15.4 15.3 13.9 91 0.8 NE 7 9 4 5 1009.6 1009.6 0.0
28/02:30am 16.4 16.6 14.8 90 0.9 NE 7 9 4 5 1009.7 1009.7 0.0
28/02:00am 16.6 18.2 15.0 90 0.9 CALM 0 9 0 5 1009.7 1009.7 0.0
28/01:30am 16.6 18.3 15.1 91 0.9 CALM 0 0 0 0 1010.4 1010.4 0.0
28/01:00am 16.7 18.4 15.2 91 0.9 CALM 0 0 0 0 1010.8 1010.8 0.0
28/12:30am 16.7 18.4 15.2 91 0.9 CALM 0 0 0 0 1011.0 1011.0 0.0
28/12:00am 16.5 17.7 14.9 90 0.9 ENE 2 6 1 3 1011.1 1011.1 0.0
 
Date/Time
EDT
Temp
°C
App
Temp
°C
Dew
Point
Rel
Hum
%
Delta-T
°C
Wind Press
QNH
hPa
Press
MSL
hPa
Rain
since 9 am
mm
Dir
 
Spd
km/h
Gust
km/h
Spd
kts
Gust
kts
27/11:30pm 16.2 16.4 14.7 91 0.9 ESE 7 9 4 5 1011.2 1011.2 0.0
27/11:00pm 16.5 16.6 14.5 88 1.1 SE 7 9 4 5 1011.2 1011.2 0.0
27/10:30pm 17.1 18.5 14.4 84 1.5 CALM 0 0 0 0 1011.3 1011.3 0.0
27/10:00pm 17.2 17.3 14.5 84 1.6 NE 7 9 4 5 1011.2 1011.2 0.0
27/09:30pm 17.2 17.5 14.5 84 1.6 ESE 6 7 3 4 1011.3 1011.3 0.0
27/09:00pm 17.2 17.4 14.7 85 1.4 SSE 7 9 4 5 1011.2 1011.2 0.0
27/08:30pm 17.4 18.8 14.3 82 1.8 CALM 0 6 0 3 1010.6 1010.6 0.0
27/08:00pm 17.6 17.7 14.5 82 1.8 SE 7 9 4 5 1010.2 1010.2 0.0
27/07:30pm 17.7 17.7 14.2 80 2.0 SE 7 9 4 5 1010.0 1010.0 0.0
27/07:00pm 17.8 17.1 14.3 80 2.0 S 11 13 6 7 1010.1 1010.1 0.0
27/06:30pm 17.9 16.8 14.4 80 2.0 SSE 13 17 7 9 1009.9 1009.9 0.0
27/06:00pm 18.2 16.4 14.5 79 2.1 SSE 17 20 9 11 1010.3 1010.3 0.0
27/05:30pm 18.8 17.2 15.1 79 2.2 SSE 17 22 9 12 1010.4 1010.4 0.0
27/05:00pm 19.1 17.2 15.2 78 2.3 SSE 19 24 10 13 1009.8 1009.8 0.0
27/04:30pm 19.3 17.3 15.0 76 2.5 SSE 19 24 10 13 1010.1 1010.1 0.0
27/04:00pm 19.7 17.9 15.4 76 2.5 SSE 19 24 10 13 1009.9 1009.9 0.0
27/03:30pm 20.1 18.4 15.7 76 2.6 S 19 24 10 13 1010.1 1010.1 0.0
27/03:00pm 20.2 18.4 16.0 77 2.5 SSE 20 26 11 14 1010.2 1010.2 0.0
27/02:30pm 20.6 17.7 16.2 76 2.6 SSE 26 32 14 17 1010.1 1010.1 0.0
27/02:00pm 21.8 19.7 16.3 71 3.3 SSE 22 28 12 15 1010.0 1010.0 0.0
27/01:30pm 21.5 19.8 14.6 65 4.1 SSE 17 24 9 13 1010.1 1010.1 0.0
27/01:00pm 21.3 19.3 16.5 74 2.9 SSE 22 30 12 16 1010.2 1010.2 0.0
27/12:30pm 20.6 19.0 16.0 75 2.8 S 19 24 10 13 1010.5 1010.5 0.0
27/12:00pm 21.2 19.7 14.1 64 4.1 SW 15 20 8 11 1010.8 1010.8 0.0
27/11:30am 21.7 21.4 15.5 68 3.7 SW 11 19 6 10 1011.0 1011.0 0.0
27/11:00am 21.2 21.9 14.4 65 4.0 W 4 7 2 4 1011.0 1011.0 0.0
27/10:30am 20.7 20.8 14.4 67 3.7 SSE 7 13 4 7 1010.8 1010.8 0.0
27/10:00am 19.7 19.4 14.5 72 3.0 SW 9 15 5 8 1010.9 1010.9 0.0
27/09:30am 19.8 20.2 16.3 80 2.1 SW 9 13 5 7 1010.7 1010.7 0.0
27/09:00am 18.2 18.5 15.1 82 1.8 W 7 11 4 6 1010.8 1010.8 0.0
27/08:30am 16.2 16.8 15.2 94 0.6 NNW 6 7 3 4 1010.8 1010.8 0.0
27/08:00am 14.8 16.4 14.8 100 0.0 CALM 0 0 0 0 1010.7 1010.7 0.0
27/07:30am 13.5 14.6 13.5 100 0.0 CALM 0 0 0 0 1010.5 1010.5 0.0
27/07:00am 12.7 13.5 12.7 100 0.0 CALM 0 0 0 0 1010.3 1010.3 0.0
27/06:30am 12.0 12.6 12.0 100 0.0 CALM 0 0 0 0 1009.9 1009.9 0.0
27/06:00am 12.4 13.2 12.4 100 0.0 CALM 0 4 0 2 1009.9 1009.9 0.0
27/05:30am 12.0 11.5 12.0 100 0.0 N 6 7 3 4 1009.9 1009.9 0.0
27/05:00am 12.4 11.1 12.4 100 0.0 NW 11 13 6 7 1009.9 1009.9 0.0
27/04:30am 11.0 9.6 10.8 99 0.1 WNW 9 11 5 6 1009.9 1009.9 0.0
27/04:00am 11.5 10.7 11.2 98 0.2 N 6 7 3 4 1009.9 1009.9 0.0
27/03:30am 12.7 12.2 12.2 97 0.3 N 6 15 3 8 1010.0 1010.0 0.0
27/03:00am 12.8 12.1 12.0 95 0.4 N 7 9 4 5 1010.3 1010.3 0.0
27/02:30am 15.1 15.3 14.3 95 0.5 NNW 6 7 3 4 1010.6 1010.6 0.0
27/02:00am 15.8 16.2 14.8 94 0.6 NW 6 7 3 4 1010.9 1010.9 0.0
27/01:30am 15.8 16.0 14.8 94 0.6 NNW 7 9 4 5 1011.2 1011.2 0.0
27/01:00am 16.1 16.1 15.3 95 0.5 NNW 9 11 5 6 1011.3 1011.3 0.0
27/12:30am 16.0 15.8 15.7 98 0.2 WNW 11 13 6 7 1011.2 1011.2 0.0
27/12:00am 15.3 15.2 15.0 98 0.2 NW 9 11 5 6 1011.2 1011.2 0.0
 
Date/Time
EDT
Temp
°C
App
Temp
°C
Dew
Point
Rel
Hum
%
Delta-T
°C
Wind Press
QNH
hPa
Press
MSL
hPa
Rain
since 9 am
mm
Dir
 
Spd
km/h
Gust
km/h
Spd
kts
Gust
kts
26/11:30pm 14.8 15.0 14.3 97 0.3 NNW 6 7 3 4 1011.1 1011.1 0.0
26/11:00pm 15.2 15.5 14.6 96 0.3 WNW 6 7 3 4 1011.2 1011.2 0.0
26/10:30pm 15.6 15.1 15.0 96 0.3 W 11 13 6 7 1011.5 1011.5 0.0
26/10:00pm 15.5 14.9 14.5 94 0.6 W 11 13 6 7 1011.4 1011.4 0.0
26/09:30pm 15.6 17.0 14.5 93 0.6 CALM 0 6 0 3 1011.1 1011.1 0.0
26/09:00pm 15.7 15.6 13.9 89 1.0 WSW 7 11 4 6 1010.7 1010.7 0.0
26/08:30pm 16.8 16.7 15.0 89 1.0 WNW 9 11 5 6 1010.4 1010.4 0.0
26/08:00pm 18.0 16.9 15.4 85 1.5 WSW 15 20 8 11 1010.0 1010.0 0.0
26/07:30pm 19.2 17.1 15.3 78 2.3 SW 20 28 11 15 1009.6 1009.6 0.0
26/07:00pm 20.6 18.5 15.2 71 3.2 SW 20 28 11 15 1009.2 1009.2 0.0
26/06:30pm 20.8 17.8 14.7 68 3.6 SW 24 30 13 16 1009.1 1009.1 0.0
26/06:00pm 20.7 16.9 14.8 69 3.5 SW 28 35 15 19 1008.8 1008.8 0.0
26/05:30pm 20.9 17.1 14.8 68 3.6 SW 28 37 15 20 1008.8 1008.8 0.0
26/05:00pm 21.5 17.9 15.3 68 3.7 SW 28 35 15 19 1008.8 1008.8 0.0
26/04:30pm 22.1 17.7 15.2 65 4.1 SW 32 44 17 24 1008.9 1008.9 0.0
26/04:00pm 22.1 18.4 15.9 68 3.7 SSW 30 41 16 22 1008.9 1008.9 0.0
26/03:30pm 23.2 18.8 16.7 67 4.0 SW 35 48 19 26 1008.8 1008.8 0.0
26/03:00pm 23.1 19.2 16.9 68 3.8 SW 33 44 18 24 1008.8 1008.8 0.0
26/02:30pm 22.5 18.8 16.1 67 3.9 SW 30 41 16 22 1008.9 1008.9 0.0
26/02:00pm 23.1 19.6 16.6 67 4.0 SW 30 41 16 22 1008.9 1008.9 0.0
26/01:30pm 22.2 18.6 17.1 73 3.1 SW 32 41 17 22 1008.9 1008.9 0.0
26/01:00pm 22.7 19.5 16.3 67 3.9 SW 28 39 15 21 1008.8 1008.8 0.0
26/12:30pm 23.3 20.9 15.4 61 4.7 W 22 32 12 17 1008.8 1008.8 0.0
26/12:00pm 22.9 20.6 15.7 64 4.3 WSW 22 30 12 16 1009.1 1009.1 0.0
26/11:30am 22.0 19.2 16.3 70 3.5 WSW 26 32 14 17 1009.2 1009.2 0.0
26/11:00am 22.7 20.4 16.7 69 3.7 W 24 33 13 18 1009.1 1009.1 0.0
26/10:30am 21.7 20.1 16.4 72 3.2 W 20 30 11 16 1009.2 1009.2 0.0
26/10:00am 19.5 20.8 17.6 89 1.2 WSW 7 11 4 6 1009.4 1009.4 0.0

Other Formats:

Comma delimited format used in spreadsheet applications
http://www.bom.gov.au/fwo/IDV60801/IDV60801.95890.axf

JavaScript Object Notation format (JSON) in row-major order
http://www.bom.gov.au/fwo/IDV60801/IDV60801.95890.json